Time;durP1;ratioP1;P1;durP2;ratioP2;P2;SDS_P1;SDS_P2;PMS_P1;PMS_P2;Temp;Humidity;BMP_temperature;BMP_pressure;BME280_temperature;BME280_humidity;BME280_pressure;Samples;Min_cycle;Max_cycle;Signal;HPM_P1;HPM_P2
2024/01/24 00:01:10;;;;;;;11.40;2.33;;;;;;;;;;6278005;22;19999;-81
2024/01/24 00:03:55;;;;;;;7.72;2.08;;;;;;;;;;6277010;22;20362;-82
2024/01/24 00:06:43;;;;;;;4.28;1.45;;;;;;;;;;6278476;22;20015;-81
2024/01/24 00:09:30;;;;;;;7.38;1.73;;;;;;;;;;6276253;22;20352;-82
2024/01/24 00:12:15;;;;;;;4.47;1.25;;;;;;;;;;6276271;22;20085;-82
2024/01/24 00:15:01;;;;;;;6.45;1.48;;;;;;;;;;6277725;22;19995;-81
2024/01/24 00:17:46;;;;;;;5.63;1.80;;;;;;;;;;6275818;22;20074;-81
2024/01/24 00:20:31;;;;;;;6.38;1.75;;;;;;;;;;6276775;22;20053;-81
2024/01/24 00:23:16;;;;;;;7.85;1.65;;;;;;;;;;6276202;22;20003;-79
2024/01/24 00:26:01;;;;;;;8.35;2.80;;;;;;;;;;6274395;22;20431;-80
2024/01/24 00:28:47;;;;;;;11.82;2.33;;;;;;;;;;6276395;22;20386;-81
2024/01/24 00:31:32;;;;;;;5.70;1.85;;;;;;;;;;6276887;22;20037;-79
2024/01/24 00:34:17;;;;;;;6.88;2.00;;;;;;;;;;6276480;22;20376;-82
2024/01/24 00:37:02;;;;;;;5.20;1.33;;;;;;;;;;6275233;22;20000;-81
2024/01/24 00:39:48;;;;;;;4.72;1.52;;;;;;;;;;6276008;22;20003;-81
2024/01/24 00:42:33;;;;;;;5.55;1.77;;;;;;;;;;6276867;22;19996;-81
2024/01/24 00:45:18;;;;;;;3.97;1.60;;;;;;;;;;6276985;22;19999;-80
2024/01/24 00:48:03;;;;;;;5.82;1.70;;;;;;;;;;6276291;22;20010;-81
2024/01/24 00:50:49;;;;;;;4.80;1.73;;;;;;;;;;6278234;22;20078;-81
2024/01/24 00:53:36;;;;;;;8.02;1.65;;;;;;;;;;6275795;22;20435;-80
2024/01/24 00:56:22;;;;;;;6.65;1.55;;;;;;;;;;6276013;22;20006;-82
2024/01/24 00:59:07;;;;;;;7.50;2.00;;;;;;;;;;6277182;22;20034;-81
2024/01/24 01:01:53;;;;;;;3.05;1.40;;;;;;;;;;6277183;22;20006;-80
2024/01/24 01:04:38;;;;;;;10.82;2.50;;;;;;;;;;6275791;22;20547;-81
2024/01/24 01:07:23;;;;;;;4.80;1.48;;;;;;;;;;6276538;22;20488;-81
2024/01/24 01:10:08;;;;;;;5.43;1.30;;;;;;;;;;6274139;22;20003;-80
2024/01/24 01:12:54;;;;;;;5.35;1.70;;;;;;;;;;6245180;22;20020;-80
2024/01/24 01:15:39;;;;;;;6.93;1.92;;;;;;;;;;6246392;22;19999;-81
2024/01/24 01:18:25;;;;;;;6.40;1.88;;;;;;;;;;6243170;22;19996;-81
2024/01/24 01:21:10;;;;;;;8.80;2.70;;;;;;;;;;6244262;22;20082;-82
2024/01/24 01:23:55;;;;;;;5.78;1.90;;;;;;;;;;6244691;22;20018;-81
2024/01/24 01:26:40;;;;;;;3.92;1.83;;;;;;;;;;6244400;22;20016;-81
2024/01/24 01:29:26;;;;;;;7.43;1.58;;;;;;;;;;6244925;22;20011;-80
2024/01/24 01:32:11;;;;;;;6.80;1.48;;;;;;;;;;6245468;22;20018;-81
2024/01/24 01:34:56;;;;;;;6.28;1.90;;;;;;;;;;6244272;22;20090;-81
2024/01/24 01:37:42;;;;;;;6.68;1.50;;;;;;;;;;6245204;22;20002;-80
2024/01/24 01:40:27;;;;;;;4.68;1.60;;;;;;;;;;6245360;22;20627;-80
2024/01/24 01:43:13;;;;;;;3.53;1.30;;;;;;;;;;6244519;22;19999;-81
2024/01/24 01:46:02;;;;;;;6.28;1.33;;;;;;;;;;6244207;22;20008;-82
2024/01/24 01:48:49;;;;;;;6.60;2.38;;;;;;;;;;6244872;22;20000;-82
2024/01/24 01:51:35;;;;;;;5.35;1.52;;;;;;;;;;6245628;22;20380;-83
2024/01/24 01:54:20;;;;;;;4.93;2.15;;;;;;;;;;6243878;22;20003;-82
2024/01/24 01:57:08;;;;;;;4.22;1.13;;;;;;;;;;6245055;22;20003;-82
2024/01/24 01:59:53;;;;;;;4.93;1.83;;;;;;;;;;6245837;22;20003;-80
2024/01/24 02:02:38;;;;;;;2.58;1.13;;;;;;;;;;6224628;22;19992;-80
2024/01/24 02:05:24;;;;;;;1.52;1.10;;;;;;;;;;6244332;22;20000;-81
2024/01/24 02:08:09;;;;;;;4.15;1.27;;;;;;;;;;6244789;22;20011;-80
2024/01/24 02:10:54;;;;;;;6.63;1.80;;;;;;;;;;6251346;22;20086;-80
2024/01/24 02:13:40;;;;;;;2.38;1.30;;;;;;;;;;6275627;22;20003;-81
2024/01/24 02:16:25;;;;;;;2.80;1.17;;;;;;;;;;6275701;22;19991;-80
2024/01/24 02:19:10;;;;;;;3.80;1.52;;;;;;;;;;6275152;22;19999;-80
2024/01/24 02:21:56;;;;;;;8.38;2.00;;;;;;;;;;6276290;22;19999;-81
2024/01/24 02:24:41;;;;;;;3.92;1.65;;;;;;;;;;6275499;22;19996;-81
2024/01/24 02:27:26;;;;;;;7.10;1.88;;;;;;;;;;6276057;22;20011;-80
2024/01/24 02:30:12;;;;;;;4.88;1.30;;;;;;;;;;6276105;22;20443;-81
2024/01/24 02:32:57;;;;;;;5.25;1.60;;;;;;;;;;6275965;22;20274;-81
2024/01/24 02:35:43;;;;;;;4.03;1.35;;;;;;;;;;6272785;22;20049;-81
2024/01/24 02:38:28;;;;;;;4.93;1.52;;;;;;;;;;6275914;22;19995;-81
2024/01/24 02:41:13;;;;;;;3.30;1.13;;;;;;;;;;6275765;22;20006;-80
2024/01/24 02:43:59;;;;;;;3.65;1.50;;;;;;;;;;6275997;22;20076;-80
2024/01/24 02:46:44;;;;;;;2.80;1.17;;;;;;;;;;6276500;22;20052;-79
2024/01/24 02:49:30;;;;;;;4.80;1.60;;;;;;;;;;6275612;22;20052;-79
2024/01/24 02:52:16;;;;;;;3.30;1.75;;;;;;;;;;6275912;22;20015;-79
2024/01/24 02:55:01;;;;;;;4.53;1.75;;;;;;;;;;6274947;22;20124;-80
2024/01/24 02:57:47;;;;;;;3.88;1.00;;;;;;;;;;6275494;22;20003;-80
2024/01/24 03:00:32;;;;;;;3.15;1.85;;;;;;;;;;6276552;22;20009;-81
2024/01/24 03:03:17;;;;;;;3.67;1.20;;;;;;;;;;6278917;22;20003;-81
2024/01/24 03:06:03;;;;;;;2.88;1.20;;;;;;;;;;6279395;22;20056;-83
2024/01/24 03:08:51;;;;;;;1.65;1.08;;;;;;;;;;6279971;22;20003;-81
2024/01/24 03:11:37;;;;;;;4.70;1.40;;;;;;;;;;6279188;22;20019;-81
2024/01/24 03:14:24;;;;;;;4.97;1.20;;;;;;;;;;6278210;22;19999;-79
2024/01/24 03:17:09;;;;;;;4.68;1.17;;;;;;;;;;6278700;22;20309;-80
2024/01/24 03:19:55;;;;;;;3.90;0.90;;;;;;;;;;6278404;22;20034;-82
2024/01/24 03:22:40;;;;;;;5.43;1.33;;;;;;;;;;6279560;22;20026;-80
2024/01/24 03:25:26;;;;;;;2.70;1.02;;;;;;;;;;6278866;22;20022;-81
2024/01/24 03:28:11;;;;;;;4.70;1.23;;;;;;;;;;6279621;22;20525;-81
2024/01/24 03:30:56;;;;;;;3.88;1.33;;;;;;;;;;6279231;22;20006;-80
2024/01/24 03:33:42;;;;;;;2.95;0.95;;;;;;;;;;6278577;22;19992;-80
2024/01/24 03:36:27;;;;;;;2.70;1.02;;;;;;;;;;6277338;22;20022;-81
2024/01/24 03:39:13;;;;;;;6.20;1.25;;;;;;;;;;6257584;22;20000;-81
2024/01/24 03:41:58;;;;;;;5.38;1.10;;;;;;;;;;6282457;22;19995;-77
2024/01/24 03:44:43;;;;;;;5.60;1.23;;;;;;;;;;6288798;22;19999;-81
2024/01/24 03:47:28;;;;;;;3.53;0.90;;;;;;;;;;6286904;22;20067;-81
2024/01/24 03:50:14;;;;;;;3.90;1.48;;;;;;;;;;6293428;22;19999;-81
2024/01/24 03:53:00;;;;;;;2.80;1.40;;;;;;;;;;6302885;22;20006;-81
2024/01/24 03:55:45;;;;;;;4.55;1.23;;;;;;;;;;6303765;22;19999;-81
2024/01/24 03:58:31;;;;;;;3.78;1.00;;;;;;;;;;6282498;22;20037;-81
2024/01/24 04:01:16;;;;;;;6.60;1.27;;;;;;;;;;6281989;22;20177;-81
2024/01/24 04:04:01;;;;;;;3.38;2.58;;;;;;;;;;6256045;22;20004;-81
2024/01/24 04:06:47;;;;;;;8.25;1.60;;;;;;;;;;6279233;22;20003;-80
2024/01/24 04:09:32;;;;;;;6.55;1.30;;;;;;;;;;6276424;22;20003;-80
2024/01/24 04:12:17;;;;;;;3.17;1.42;;;;;;;;;;6274314;22;20018;-80
2024/01/24 04:15:03;;;;;;;2.08;1.00;;;;;;;;;;6277261;22;19999;-81
2024/01/24 04:17:48;;;;;;;4.68;1.55;;;;;;;;;;6276370;22;20037;-81
2024/01/24 04:20:33;;;;;;;6.20;2.03;;;;;;;;;;6274861;22;20074;-81
2024/01/24 04:23:19;;;;;;;3.80;1.27;;;;;;;;;;6277554;22;19995;-82
2024/01/24 04:26:04;;;;;;;6.45;2.65;;;;;;;;;;6275776;22;19999;-83
2024/01/24 04:28:50;;;;;;;5.15;1.33;;;;;;;;;;6256186;22;19999;-82
2024/01/24 04:31:35;;;;;;;3.65;1.55;;;;;;;;;;6277225;22;20280;-82
2024/01/24 04:34:20;;;;;;;6.40;2.47;;;;;;;;;;6276865;22;20386;-81
2024/01/24 04:37:06;;;;;;;4.97;1.92;;;;;;;;;;6276288;22;20078;-81
2024/01/24 04:39:51;;;;;;;8.05;3.03;;;;;;;;;;6276005;22;20677;-81
2024/01/24 04:42:38;;;;;;;5.32;2.20;;;;;;;;;;6276277;22;20003;-80
2024/01/24 04:45:23;;;;;;;6.40;3.20;;;;;;;;;;6276813;22;20083;-80
2024/01/24 04:48:09;;;;;;;4.60;1.52;;;;;;;;;;6276669;22;20069;-80
2024/01/24 04:50:54;;;;;;;10.35;2.55;;;;;;;;;;6276795;22;20003;-80
2024/01/24 04:53:39;;;;;;;6.15;1.55;;;;;;;;;;6277259;22;20003;-81
2024/01/24 04:56:25;;;;;;;5.97;1.70;;;;;;;;;;6274297;22;20383;-81
2024/01/24 04:59:11;;;;;;;5.68;1.90;;;;;;;;;;6272595;22;19992;-81
2024/01/24 05:01:56;;;;;;;7.13;1.80;;;;;;;;;;6277070;22;20003;-80
2024/01/24 05:04:42;;;;;;;5.22;1.55;;;;;;;;;;6275237;22;19999;-81
2024/01/24 05:07:27;;;;;;;4.82;1.25;;;;;;;;;;6275771;22;20093;-80
2024/01/24 05:10:12;;;;;;;6.00;1.60;;;;;;;;;;6274759;22;20003;-80
2024/01/24 05:12:58;;;;;;;3.50;1.42;;;;;;;;;;6273017;22;20058;-81
2024/01/24 05:15:43;;;;;;;6.32;1.92;;;;;;;;;;6275604;22;19999;-81
2024/01/24 05:18:28;;;;;;;6.10;1.27;;;;;;;;;;6255012;22;20098;-81
2024/01/24 05:21:13;;;;;;;7.47;1.88;;;;;;;;;;6274653;22;20019;-80
2024/01/24 05:23:59;;;;;;;9.68;1.75;;;;;;;;;;6276317;22;20003;-81
2024/01/24 05:26:46;;;;;;;4.82;1.92;;;;;;;;;;6275366;22;20003;-82
2024/01/24 05:29:31;;;;;;;3.85;1.65;;;;;;;;;;6275898;22;20003;-81
2024/01/24 05:32:16;;;;;;;4.28;1.40;;;;;;;;;;6276265;22;20053;-81
2024/01/24 05:35:02;;;;;;;2.75;1.30;;;;;;;;;;6273622;22;19999;-82
2024/01/24 05:37:47;;;;;;;6.93;1.60;;;;;;;;;;6277303;22;19999;-81
2024/01/24 05:40:32;;;;;;;2.95;1.45;;;;;;;;;;6273526;22;20014;-83
2024/01/24 05:43:17;;;;;;;4.30;1.42;;;;;;;;;;6273550;22;20031;-82
2024/01/24 05:46:03;;;;;;;4.43;1.48;;;;;;;;;;6273827;22;20007;-81
2024/01/24 05:48:48;;;;;;;5.03;1.48;;;;;;;;;;6273961;22;19999;-82
2024/01/24 05:51:33;;;;;;;6.35;1.55;;;;;;;;;;6276636;22;20014;-82
2024/01/24 05:54:21;;;;;;;5.85;1.98;;;;;;;;;;6255266;22;20014;-81
2024/01/24 05:57:06;;;;;;;3.67;1.30;;;;;;;;;;6276057;22;20047;-80
2024/01/24 05:59:51;;;;;;;2.65;1.45;;;;;;;;;;6274129;22;20358;-81
2024/01/24 06:02:37;;;;;;;6.28;1.48;;;;;;;;;;6276393;22;19999;-81
2024/01/24 06:05:25;;;;;;;4.45;1.40;;;;;;;;;;6274732;22;19995;-81
2024/01/24 06:08:10;;;;;;;2.40;1.20;;;;;;;;;;6276687;22;20083;-81
2024/01/24 06:10:56;;;;;;;4.22;1.40;;;;;;;;;;6275790;22;20022;-81
2024/01/24 06:13:41;;;;;;;4.80;1.60;;;;;;;;;;6276524;22;20003;-81
2024/01/24 06:16:26;;;;;;;1.58;1.25;;;;;;;;;;6276838;22;19995;-81
2024/01/24 06:19:12;;;;;;;5.75;1.75;;;;;;;;;;6275039;22;19995;-81
2024/01/24 06:21:57;;;;;;;2.35;1.10;;;;;;;;;;6274592;22;20001;-81
2024/01/24 06:24:44;;;;;;;6.05;1.60;;;;;;;;;;6275215;22;20003;-81
2024/01/24 06:27:29;;;;;;;3.10;1.40;;;;;;;;;;6275936;22;19991;-81
2024/01/24 06:30:14;;;;;;;2.40;1.20;;;;;;;;;;6275991;22;20428;-81
2024/01/24 06:32:59;;;;;;;2.47;1.17;;;;;;;;;;6276215;22;19995;-80
2024/01/24 06:35:44;;;;;;;3.42;1.17;;;;;;;;;;6275175;22;20327;-81
2024/01/24 06:38:30;;;;;;;3.35;1.25;;;;;;;;;;6276394;22;20002;-82
2024/01/24 06:41:15;;;;;;;4.53;1.25;;;;;;;;;;6271189;22;20003;-82
2024/01/24 06:44:00;;;;;;;3.97;1.67;;;;;;;;;;6275340;22;20007;-81
2024/01/24 06:46:45;;;;;;;4.03;1.42;;;;;;;;;;6276164;22;20003;-82
2024/01/24 06:49:31;;;;;;;2.60;1.20;;;;;;;;;;6276381;22;20002;-82
2024/01/24 06:52:16;;;;;;;5.70;2.10;;;;;;;;;;6255608;22;20033;-82
2024/01/24 06:55:01;;;;;;;2.90;1.00;;;;;;;;;;6275313;22;19995;-84
2024/01/24 06:57:47;;;;;;;2.40;1.55;;;;;;;;;;6274555;22;20006;-81
2024/01/24 07:00:32;;;;;;;4.57;1.42;;;;;;;;;;6275391;22;20003;-82
2024/01/24 07:03:18;;;;;;;3.13;1.45;;;;;;;;;;6276329;22;20027;-81
2024/01/24 07:06:05;;;;;;;4.15;1.50;;;;;;;;;;6273218;22;20010;-82
2024/01/24 07:08:50;;;;;;;1.90;1.20;;;;;;;;;;6274807;22;20010;-82
2024/01/24 07:11:37;;;;;;;4.53;1.52;;;;;;;;;;6274469;22;20126;-82
2024/01/24 07:14:22;;;;;;;3.17;1.17;;;;;;;;;;6274852;22;20082;-82
2024/01/24 07:17:07;;;;;;;4.28;1.52;;;;;;;;;;6274124;22;20086;-82
2024/01/24 07:19:52;;;;;;;5.63;1.40;;;;;;;;;;6276346;22;20003;-83
2024/01/24 07:22:41;;;;;;;4.20;1.30;;;;;;;;;;6275308;22;20054;-82
2024/01/24 07:25:26;;;;;;;8.88;1.67;;;;;;;;;;6274928;22;20456;-82
2024/01/24 07:28:11;;;;;;;3.92;1.38;;;;;;;;;;6276320;22;19995;-81
2024/01/24 07:30:56;;;;;;;5.13;1.73;;;;;;;;;;6277452;22;20018;-80
2024/01/24 07:33:42;;;;;;;4.60;1.55;;;;;;;;;;6277340;22;19995;-82
2024/01/24 07:36:27;;;;;;;5.55;1.73;;;;;;;;;;6276123;22;20328;-79
2024/01/24 07:39:12;;;;;;;3.05;1.13;;;;;;;;;;6276917;22;19999;-79
2024/01/24 07:41:57;;;;;;;2.53;1.58;;;;;;;;;;6276804;22;19996;-79
2024/01/24 07:44:43;;;;;;;2.75;1.30;;;;;;;;;;6276058;22;20003;-80
2024/01/24 07:47:28;;;;;;;4.57;1.42;;;;;;;;;;6276911;22;19995;-80
2024/01/24 07:50:13;;;;;;;2.33;1.13;;;;;;;;;;6276099;22;20009;-83
2024/01/24 07:52:58;;;;;;;1.80;1.00;;;;;;;;;;6277712;22;20095;-82
2024/01/24 07:55:44;;;;;;;4.20;1.00;;;;;;;;;;6276007;22;20086;-83
2024/01/24 07:58:29;;;;;;;1.83;0.90;;;;;;;;;;6276517;22;20075;-81
2024/01/24 08:01:14;;;;;;;2.42;1.13;;;;;;;;;;6277312;22;20049;-82
2024/01/24 08:03:59;;;;;;;2.00;0.88;;;;;;;;;;6277109;22;20022;-82
2024/01/24 08:06:47;;;;;;;0.98;0.88;;;;;;;;;;6277065;22;20044;-80
2024/01/24 08:09:32;;;;;;;2.35;1.00;;;;;;;;;;6277161;22;20003;-83
2024/01/24 08:12:18;;;;;;;3.38;1.52;;;;;;;;;;6276174;22;20701;-85
2024/01/24 08:15:05;;;;;;;3.15;1.25;;;;;;;;;;6275987;22;20026;-85
2024/01/24 08:17:50;;;;;;;0.85;0.77;;;;;;;;;;6276821;22;19998;-82
2024/01/24 08:20:35;;;;;;;1.42;0.70;;;;;;;;;;6280849;22;20273;-84
2024/01/24 08:23:20;;;;;;;1.38;1.00;;;;;;;;;;6277372;22;20077;-84
2024/01/24 08:26:08;;;;;;;1.98;1.00;;;;;;;;;;6277778;22;20380;-88
2024/01/24 08:28:53;;;;;;;1.80;0.65;;;;;;;;;;6277421;22;20003;-85
2024/01/24 08:31:38;;;;;;;3.45;1.25;;;;;;;;;;6275596;22;20371;-86
2024/01/24 08:34:24;;;;;;;1.73;0.77;;;;;;;;;;6275781;22;20042;-84
2024/01/24 08:37:09;;;;;;;1.60;0.77;;;;;;;;;;6276903;22;20371;-84
2024/01/24 08:39:54;;;;;;;2.65;0.93;;;;;;;;;;6276916;22;19999;-83
2024/01/24 08:42:41;;;;;;;1.17;0.70;;;;;;;;;;6277390;22;19999;-83
2024/01/24 08:45:27;;;;;;;1.75;0.60;;;;;;;;;;6277644;22;20474;-84
2024/01/24 08:48:14;;;;;;;1.98;0.77;;;;;;;;;;6278340;22;20003;-87
2024/01/24 08:50:59;;;;;;;1.45;0.88;;;;;;;;;;6276858;22;20004;-86
2024/01/24 08:53:46;;;;;;;0.93;0.68;;;;;;;;;;6278952;22;20087;-84
2024/01/24 08:56:31;;;;;;;0.90;0.90;;;;;;;;;;6296275;22;20013;-85
2024/01/24 08:59:16;;;;;;;2.15;0.80;;;;;;;;;;6296939;22;20003;-86
2024/01/24 09:02:04;;;;;;;0.60;0.60;;;;;;;;;;6268858;22;20362;-85
2024/01/24 09:04:52;;;;;;;0.80;0.75;;;;;;;;;;6293805;22;20065;-85
2024/01/24 09:07:37;;;;;;;1.13;0.68;;;;;;;;;;6287810;22;20006;-87
2024/01/24 09:10:22;;;;;;;0.95;0.60;;;;;;;;;;6279636;22;20029;-83
2024/01/24 09:13:08;;;;;;;0.60;0.60;;;;;;;;;;6279545;22;20003;-87
2024/01/24 09:15:53;;;;;;;1.55;0.82;;;;;;;;;;6279554;22;19998;-86
2024/01/24 09:18:39;;;;;;;2.10;1.08;;;;;;;;;;6280968;22;19999;-88
2024/01/24 09:21:24;;;;;;;3.47;0.88;;;;;;;;;;6278939;22;20320;-84
2024/01/24 09:24:09;;;;;;;3.08;0.70;;;;;;;;;;6257038;22;20305;-83
2024/01/24 09:26:55;;;;;;;0.55;0.55;;;;;;;;;;6277551;22;20056;-84
2024/01/24 09:29:40;;;;;;;0.65;0.60;;;;;;;;;;6254864;22;20436;-84
2024/01/24 09:32:25;;;;;;;1.15;0.68;;;;;;;;;;6276619;22;19999;-84
2024/01/24 09:35:11;;;;;;;2.92;0.80;;;;;;;;;;6277556;22;20022;-85
2024/01/24 09:37:56;;;;;;;0.60;0.60;;;;;;;;;;6275763;22;20626;-85
2024/01/24 09:40:42;;;;;;;1.63;0.80;;;;;;;;;;6275664;22;20003;-86
2024/01/24 09:43:28;;;;;;;0.68;0.68;;;;;;;;;;6275915;22;19999;-85
2024/01/24 09:46:18;;;;;;;0.52;0.52;;;;;;;;;;6276632;22;20031;-84
2024/01/24 09:49:07;;;;;;;2.35;0.77;;;;;;;;;;6276226;22;20015;-85
2024/01/24 09:51:53;;;;;;;2.90;1.00;;;;;;;;;;6277251;22;20003;-85
2024/01/24 09:54:39;;;;;;;1.13;0.70;;;;;;;;;;6276356;22;19995;-83
2024/01/24 09:57:26;;;;;;;1.85;0.60;;;;;;;;;;6278961;22;20002;-85
2024/01/24 10:00:14;;;;;;;1.48;0.60;;;;;;;;;;6275946;22;20010;-84
2024/01/24 10:02:59;;;;;;;2.67;0.80;;;;;;;;;;6277732;22;20078;-85
2024/01/24 10:05:46;;;;;;;1.48;0.68;;;;;;;;;;6275959;22;19999;-83
2024/01/24 10:08:31;;;;;;;0.60;0.60;;;;;;;;;;6277042;22;20384;-84
2024/01/24 10:11:17;;;;;;;0.98;0.70;;;;;;;;;;6276094;22;20094;-85
2024/01/24 10:14:02;;;;;;;0.60;0.60;;;;;;;;;;6275399;22;19991;-86
2024/01/24 10:16:50;;;;;;;0.80;0.80;;;;;;;;;;6279460;22;20376;-87
2024/01/24 10:19:35;;;;;;;1.00;0.52;;;;;;;;;;6277871;22;20015;-86
2024/01/24 10:22:24;;;;;;;0.82;0.70;;;;;;;;;;6276851;22;20034;-88
2024/01/24 10:25:10;;;;;;;0.60;0.60;;;;;;;;;;6277191;22;20006;-86
2024/01/24 10:27:56;;;;;;;0.77;0.70;;;;;;;;;;6277162;22;20029;-85
2024/01/24 10:30:41;;;;;;;0.80;0.70;;;;;;;;;;6277961;22;20006;-84
2024/01/24 10:33:26;;;;;;;1.40;0.70;;;;;;;;;;6276258;22;20003;-82
2024/01/24 10:36:12;;;;;;;2.80;0.60;;;;;;;;;;6277924;22;20007;-85
2024/01/24 10:38:58;;;;;;;0.60;0.50;;;;;;;;;;6276891;22;20237;-84
2024/01/24 10:41:46;;;;;;;1.38;0.77;;;;;;;;;;6277182;22;20003;-85
2024/01/24 10:44:33;;;;;;;0.60;0.60;;;;;;;;;;6280648;22;19999;-87
2024/01/24 10:47:20;;;;;;;0.57;0.57;;;;;;;;;;6277471;22;20074;-88
2024/01/24 10:50:06;;;;;;;0.60;0.60;;;;;;;;;;6278860;22;19995;-89
2024/01/24 10:52:54;;;;;;;0.65;0.57;;;;;;;;;;6277872;22;20022;-83
2024/01/24 10:55:40;;;;;;;0.82;0.82;;;;;;;;;;6277121;22;19991;-82
2024/01/24 10:58:27;;;;;;;0.50;0.50;;;;;;;;;;6279142;22;20348;-85
2024/01/24 11:01:12;;;;;;;0.50;0.50;;;;;;;;;;6277320;22;20340;-84
2024/01/24 11:03:58;;;;;;;0.50;0.50;;;;;;;;;;6279141;22;20014;-86
2024/01/24 11:06:53;;;;;;;1.58;0.60;;;;;;;;;;6278945;22;20018;-86
2024/01/24 11:09:53;;;;;;;0.85;0.50;;;;;;;;;;6276953;22;20012;-86
2024/01/24 11:12:38;;;;;;;4.00;0.50;;;;;;;;;;6256723;22;20326;-86
2024/01/24 11:15:26;;;;;;;1.20;0.60;;;;;;;;;;6284383;22;19995;-86
2024/01/24 11:18:19;;;;;;;1.20;0.60;;;;;;;;;;6277808;22;20003;-85
2024/01/24 11:21:04;;;;;;;1.23;0.60;;;;;;;;;;6277133;22;20407;-85
2024/01/24 11:23:50;;;;;;;0.50;0.50;;;;;;;;;;6276750;22;20046;-84
2024/01/24 11:26:38;;;;;;;1.02;0.60;;;;;;;;;;6278917;22;20003;-87
2024/01/24 11:29:32;;;;;;;0.88;0.80;;;;;;;;;;6277373;22;19999;-87
2024/01/24 11:32:37;;;;;;;1.60;0.60;;;;;;;;;;6276687;22;20029;-84
2024/01/24 11:35:25;;;;;;;1.10;0.60;;;;;;;;;;6277659;22;20002;-85
2024/01/24 11:38:16;;;;;;;1.85;1.02;;;;;;;;;;6276823;22;20009;-86
2024/01/24 11:41:05;;;;;;;3.33;0.73;;;;;;;;;;6277597;22;20039;-84
2024/01/24 11:43:50;;;;;;;2.72;1.30;;;;;;;;;;6278941;22;20046;-83
2024/01/24 11:46:35;;;;;;;3.13;1.85;;;;;;;;;;6278954;22;20010;-85
2024/01/24 11:49:21;;;;;;;1.27;0.95;;;;;;;;;;6280702;22;20010;-83
2024/01/24 11:52:07;;;;;;;1.48;0.80;;;;;;;;;;6281410;22;19995;-85
2024/01/24 11:54:53;;;;;;;1.75;0.77;;;;;;;;;;6303797;22;19994;-84
2024/01/24 11:57:38;;;;;;;0.93;0.70;;;;;;;;;;6302446;22;19984;-84
2024/01/24 12:00:24;;;;;;;2.90;0.73;;;;;;;;;;6284525;22;19987;-85
2024/01/24 12:03:12;;;;;;;0.60;0.60;;;;;;;;;;6305960;22;19987;-84
2024/01/24 12:05:58;;;;;;;1.60;0.80;;;;;;;;;;6303954;22;20045;-86
2024/01/24 12:08:45;;;;;;;1.23;0.90;;;;;;;;;;6290680;22;20007;-85
2024/01/24 12:11:30;;;;;;;2.00;0.70;;;;;;;;;;6277597;22;20018;-85
2024/01/24 12:14:16;;;;;;;1.63;0.60;;;;;;;;;;6276594;22;19999;-86
2024/01/24 12:17:01;;;;;;;2.10;1.10;;;;;;;;;;6283633;22;19995;-88
2024/01/24 12:19:47;;;;;;;5.22;1.42;;;;;;;;;;6280877;22;20090;-85
2024/01/24 12:22:33;;;;;;;4.72;1.02;;;;;;;;;;6279757;22;20004;-86
2024/01/24 12:25:18;;;;;;;2.83;0.90;;;;;;;;;;6278992;22;20011;-85
2024/01/24 12:28:04;;;;;;;1.00;0.70;;;;;;;;;;6279316;22;20003;-85
2024/01/24 12:30:49;;;;;;;1.30;0.75;;;;;;;;;;6277980;22;20054;-86
2024/01/24 12:33:35;;;;;;;1.52;0.80;;;;;;;;;;6280865;22;20000;-86
2024/01/24 12:36:21;;;;;;;2.20;0.80;;;;;;;;;;6277555;22;20084;-86
2024/01/24 12:39:07;;;;;;;2.15;0.80;;;;;;;;;;6284196;22;20006;-85
2024/01/24 12:41:52;;;;;;;2.05;0.70;;;;;;;;;;6248736;22;20328;-86
2024/01/24 12:44:38;;;;;;;2.40;0.95;;;;;;;;;;6273018;22;20018;-85
2024/01/24 12:47:23;;;;;;;3.33;1.00;;;;;;;;;;6276064;22;20386;-84
2024/01/24 12:50:12;;;;;;;2.78;1.10;;;;;;;;;;6277526;22;20009;-85
2024/01/24 12:52:57;;;;;;;1.02;0.73;;;;;;;;;;6273119;22;20007;-87
2024/01/24 12:55:45;;;;;;;1.23;0.68;;;;;;;;;;6275232;22;20117;-86
2024/01/24 12:58:30;;;;;;;5.00;1.35;;;;;;;;;;6277256;22;20061;-85
2024/01/24 13:01:15;;;;;;;8.18;1.48;;;;;;;;;;6273219;22;20070;-85
2024/01/24 13:04:01;;;;;;;2.67;0.90;;;;;;;;;;6273805;22;20003;-85
2024/01/24 13:06:46;;;;;;;2.47;1.60;;;;;;;;;;6272844;22;19999;-85
2024/01/24 13:09:31;;;;;;;4.40;1.65;;;;;;;;;;6274568;22;20084;-85
2024/01/24 13:12:16;;;;;;;4.20;1.15;;;;;;;;;;6276038;22;20023;-83
2024/01/24 13:15:06;;;;;;;2.03;1.10;;;;;;;;;;6278208;22;20023;-85
2024/01/24 13:17:51;;;;;;;6.32;1.30;;;;;;;;;;6278751;22;20053;-85
2024/01/24 13:20:37;;;;;;;7.05;1.45;;;;;;;;;;6278670;22;20034;-84
2024/01/24 13:23:22;;;;;;;4.80;1.30;;;;;;;;;;6278233;22;20313;-84
2024/01/24 13:26:08;;;;;;;4.07;1.20;;;;;;;;;;6277792;22;20001;-84
2024/01/24 13:28:53;;;;;;;6.57;1.33;;;;;;;;;;6255259;22;20000;-84
2024/01/24 13:31:38;;;;;;;8.88;1.70;;;;;;;;;;6277109;22;20007;-82
2024/01/24 13:34:23;;;;;;;6.38;1.55;;;;;;;;;;6278370;22;20090;-84
2024/01/24 13:37:09;;;;;;;3.13;0.80;;;;;;;;;;6278194;22;19995;-84
2024/01/24 13:39:54;;;;;;;5.10;1.13;;;;;;;;;;6276715;22;19999;-84
2024/01/24 13:42:39;;;;;;;8.00;1.50;;;;;;;;;;6275719;22;19999;-83
2024/01/24 13:45:25;;;;;;;12.38;2.50;;;;;;;;;;6276187;22;19995;-85
2024/01/24 13:48:10;;;;;;;3.63;1.17;;;;;;;;;;6277361;22;19999;-85
2024/01/24 13:50:55;;;;;;;4.57;1.50;;;;;;;;;;6277117;22;19999;-82
2024/01/24 13:53:40;;;;;;;4.57;1.77;;;;;;;;;;6277084;22;20421;-85
2024/01/24 13:56:26;;;;;;;6.03;1.38;;;;;;;;;;6275915;22;20328;-83
2024/01/24 13:59:11;;;;;;;5.05;1.77;;;;;;;;;;6255663;22;19995;-82
2024/01/24 14:01:56;;;;;;;4.03;1.15;;;;;;;;;;6278549;22;20007;-82
2024/01/24 14:04:41;;;;;;;4.15;1.13;;;;;;;;;;6277086;22;20444;-85
2024/01/24 14:07:27;;;;;;;3.63;1.20;;;;;;;;;;6277636;22;20137;-84
2024/01/24 14:10:12;;;;;;;6.25;1.67;;;;;;;;;;6276691;22;20034;-83
2024/01/24 14:12:57;;;;;;;5.13;1.60;;;;;;;;;;6275815;22;20023;-83
2024/01/24 14:15:43;;;;;;;5.95;1.67;;;;;;;;;;6276165;22;20003;-84
2024/01/24 14:18:28;;;;;;;2.72;1.30;;;;;;;;;;6277084;22;19995;-85
2024/01/24 14:21:13;;;;;;;5.50;1.38;;;;;;;;;;6277853;22;20006;-84
2024/01/24 14:23:59;;;;;;;6.05;1.60;;;;;;;;;;6278064;22;20003;-84
2024/01/24 14:26:44;;;;;;;5.32;1.33;;;;;;;;;;6276028;22;19996;-82
2024/01/24 14:29:29;;;;;;;3.08;1.30;;;;;;;;;;6276269;22;19999;-84
2024/01/24 14:32:15;;;;;;;3.90;1.27;;;;;;;;;;6276926;22;19995;-85
2024/01/24 14:35:00;;;;;;;6.05;1.65;;;;;;;;;;6275473;22;20003;-82
2024/01/24 14:37:45;;;;;;;6.03;1.75;;;;;;;;;;6276150;22;19995;-81
2024/01/24 14:40:30;;;;;;;7.22;3.00;;;;;;;;;;6253984;22;20011;-83
2024/01/24 14:43:16;;;;;;;6.47;2.35;;;;;;;;;;6275221;22;20078;-85
2024/01/24 14:46:01;;;;;;;6.30;2.28;;;;;;;;;;6276631;22;20044;-82
2024/01/24 14:48:46;;;;;;;9.32;2.35;;;;;;;;;;6276021;22;20030;-84
2024/01/24 14:51:32;;;;;;;5.72;1.60;;;;;;;;;;6275968;22;20003;-83
2024/01/24 14:54:17;;;;;;;6.95;1.88;;;;;;;;;;6255476;22;20427;-84
2024/01/24 14:57:03;;;;;;;7.88;1.58;;;;;;;;;;6253799;22;19995;-84
2024/01/24 14:59:48;;;;;;;6.38;3.28;;;;;;;;;;6276973;22;20604;-84
2024/01/24 15:02:34;;;;;;;6.80;1.40;;;;;;;;;;6277375;22;20082;-83
2024/01/24 15:05:19;;;;;;;5.32;1.50;;;;;;;;;;6275348;22;20083;-85
2024/01/24 15:08:05;;;;;;;3.92;1.73;;;;;;;;;;6276574;22;19999;-83
2024/01/24 15:10:50;;;;;;;6.32;2.15;;;;;;;;;;6275134;22;20039;-84
2024/01/24 15:13:37;;;;;;;3.53;1.98;;;;;;;;;;6274033;22;20551;-84
2024/01/24 15:16:23;;;;;;;7.32;2.45;;;;;;;;;;6274984;22;20087;-82
2024/01/24 15:19:08;;;;;;;5.22;1.80;;;;;;;;;;6278221;22;20057;-82
2024/01/24 15:21:54;;;;;;;8.88;2.65;;;;;;;;;;6276264;22;19999;-82
2024/01/24 15:24:39;;;;;;;7.13;2.25;;;;;;;;;;6255443;22;19999;-84
2024/01/24 15:27:24;;;;;;;8.25;1.85;;;;;;;;;;6277014;22;19995;-84
2024/01/24 15:30:11;;;;;;;7.10;2.10;;;;;;;;;;6276848;22;19999;-84
2024/01/24 15:32:56;;;;;;;5.03;1.80;;;;;;;;;;6276733;22;20015;-84
2024/01/24 15:35:41;;;;;;;9.68;2.83;;;;;;;;;;6276639;22;20442;-85
2024/01/24 15:38:27;;;;;;;7.35;1.30;;;;;;;;;;6275952;22;20033;-83
2024/01/24 15:41:14;;;;;;;5.43;1.70;;;;;;;;;;6275430;22;20056;-82
2024/01/24 15:44:00;;;;;;;4.95;1.50;;;;;;;;;;6277234;22;20034;-84
2024/01/24 15:46:45;;;;;;;6.15;1.58;;;;;;;;;;6278603;22;20082;-81
2024/01/24 15:49:30;;;;;;;5.95;1.70;;;;;;;;;;6277767;22;20073;-82
2024/01/24 15:52:17;;;;;;;8.27;1.95;;;;;;;;;;6279875;22;20004;-83
2024/01/24 15:55:06;;;;;;;5.30;1.45;;;;;;;;;;6274709;22;19999;-83
2024/01/24 15:57:51;;;;;;;6.15;2.28;;;;;;;;;;6278543;22;20044;-81
2024/01/24 16:00:37;;;;;;;7.40;1.92;;;;;;;;;;6277430;22;20056;-83
2024/01/24 16:03:24;;;;;;;4.43;1.70;;;;;;;;;;6280923;22;20002;-83
2024/01/24 16:06:09;;;;;;;4.63;2.03;;;;;;;;;;6277338;22;20060;-83
2024/01/24 16:08:54;;;;;;;4.65;1.73;;;;;;;;;;6277785;22;20033;-82
2024/01/24 16:11:39;;;;;;;11.73;2.75;;;;;;;;;;6278054;22;20015;-83
2024/01/24 16:14:25;;;;;;;7.30;2.10;;;;;;;;;;6281041;22;20332;-83
2024/01/24 16:17:11;;;;;;;3.25;1.58;;;;;;;;;;6278962;22;19999;-83
2024/01/24 16:19:56;;;;;;;6.43;1.90;;;;;;;;;;6278005;22;20007;-83
2024/01/24 16:22:42;;;;;;;8.85;2.53;;;;;;;;;;6280508;22;20004;-84
2024/01/24 16:25:27;;;;;;;5.00;1.48;;;;;;;;;;6279617;22;20006;-83
2024/01/24 16:28:14;;;;;;;4.43;2.08;;;;;;;;;;6279058;22;20003;-83
2024/01/24 16:30:59;;;;;;;6.40;1.75;;;;;;;;;;6277466;22;20082;-84
2024/01/24 16:33:45;;;;;;;5.55;1.77;;;;;;;;;;6278471;22;20515;-84